Terminal Aerodrome Forecast
Issued by NWS Spokane, WA

Home | Current Version | Previous Version | Text Only | Print | Product List | Glossary On
Versions: 1 2 3 4 5 6 7 8 9 10 11 12 13 14
000
FTUS46 KOTX 252320
TAFGEG
TAF
KGEG 252320Z 2600/2624 20012G21KT P6SM VCSH FEW090 BKN120
     FM260300 19016G26KT P6SM -SHRA SCT030 BKN050 OVC080
     FM260800 21025G38KT P6SM BKN050
     FM261500 21023KT P6SM SCT050 BKN100
     FM261800 22018G28KT P6SM VCSH SCT030 BKN050 OVC080=

USA.gov is the U.S. government's official web portal to all federal, state and local government web resources and services.